Venus R — P3TH9 — position and weather

sailwx.info

Track history (hours):
 
Tides and Currents Weather Stations Pressure Air Temp Water Temp Dewpoint Dewpoint Depression Visibility Wind Speed Wind Dir Waves Ship Positions

Venus R

Last reported at 2018-Jun-12 05:20 UTC. Time now 2018-Jun-19 21:57 UTC.
Position N 36°36' W 026°05'.

Length 228 m; draft 12.7 m.

Type: Ship. MMSI: 212084000.

Date/timePositionNaut miles runAvg speedWind from/ knotsBaromVisibWave heightAir tempDewpointWater temp
2018-Jun-12 05:20N 36°36' W 026°05'412.3
2018-Jun-12 05:00N 36°36' W 025°60'612.6
2018-Jun-12 04:30N 36°38' W 025°52'612.8
2018-Jun-12 04:00N 36°39' W 025°44'612.5
2018-Jun-12 03:30N 36°40' W 025°37'612.4
2018-Jun-12 03:01N 36°41' W 025°29'612.3
2018-Jun-12 02:30N 36°42' W 025°22'612.2
2018-Jun-12 02:00N 36°43' W 025°14'612.2
2018-Jun-12 01:31N 36°42' W 025°06'612.2
2018-Jun-12 01:00N 36°42' W 024°59'612.1
2018-Jun-12 00:30N 36°42' W 024°51'612.0
2018-Jun-12 00:01N 36°41' W 024°44'611.9
2018-Jun-11 23:30N 36°41' W 024°36'612.1
2018-Jun-11 23:00N 36°40' W 024°29'612.0
2018-Jun-11 22:30N 36°40' W 024°22'612.1
2018-Jun-11 22:00N 36°40' W 024°14'611.9
2018-Jun-11 21:30N 36°39' W 024°07'611.9
2018-Jun-11 21:00N 36°39' W 023°59'611.9
2018-Jun-11 20:28N 36°38' W 023°51'511.7
2018-Jun-11 20:00N 36°38' W 023°44'711.7
2018-Jun-11 19:24N 36°37' W 023°36'511.9
2018-Jun-11 19:00N 36°37' W 023°30'612.1
2018-Jun-11 18:30N 36°37' W 023°22'912.0
2018-Jun-11 17:43N 36°36' W 023°11'312.1
2018-Jun-11 17:30N 36°36' W 023°07'812.2
2018-Jun-11 16:51N 36°35' W 022°58'412.3
2018-Jun-11 16:30N 36°35' W 022°52'812.0
2018-Jun-11 15:49N 36°34' W 022°42'811.9
2018-Jun-11 15:09N 36°34' W 022°32'211.8
2018-Jun-11 15:00N 36°34' W 022°30'612.0
2018-Jun-11 14:30N 36°34' W 022°23'611.9
2018-Jun-11 14:00N 36°34' W 022°15'  
2018-Jun-07 20:32N 37°13' W 001°04'711.5
2018-Jun-07 19:58N 37°18' W 000°57'511.5
2018-Jun-07 19:30N 37°21' W 000°52'611.6
2018-Jun-07 19:00N 37°25' W 000°47'611.6
2018-Jun-07 18:28N 37°29' W 000°40'611.8
2018-Jun-07 17:56N 37°33' W 000°35'511.8
2018-Jun-07 17:29N 37°37' W 000°31'612.1
2018-Jun-07 16:57N 37°43' W 000°26'1711.9
2018-Jun-07 15:29N 37°57' W 000°14'611.6
2018-Jun-07 14:57N 38°02' W 000°10'711.6
2018-Jun-07 14:22N 38°08' W 000°05'53512.0
2018-Jun-05 17:37N 44°10' E 008°38'212.2
2018-Jun-05 17:30N 44°11' E 008°39'612.3
2018-Jun-05 17:00N 44°16' E 008°42'612.1
2018-Jun-05 16:30N 44°22' E 008°46'4 8.1
2018-Jun-05 16:00N 44°25' E 008°49'0 0.8
2018-Jun-05 15:28N 44°25' E 008°50'0 0.0
2018-Jun-05 14:56N 44°25' E 008°50'0 0.0
2018-Jun-05 14:22N 44°25' E 008°50'0 0.0
2018-Jun-05 13:56N 44°25' E 008°50'0 0.0
2018-Jun-05 13:28N 44°25' E 008°50'0 0.0
2018-Jun-05 12:52N 44°25' E 008°50'0 0.0
2018-Jun-05 12:14N 44°25' E 008°50'0 0.0
2018-Jun-05 11:58N 44°25' E 008°50'0 0.0
2018-Jun-05 11:28N 44°25' E 008°50'0 0.0
2018-Jun-05 10:58N 44°25' E 008°50'0 0.0
2018-Jun-05 10:28N 44°25' E 008°50'0 0.0
2018-Jun-05 09:58N 44°25' E 008°50'0 0.0
2018-Jun-05 09:26N 44°25' E 008°50'0 0.0
2018-Jun-05 08:56N 44°25' E 008°50'0 0.0
2018-Jun-05 08:28N 44°25' E 008°50'0 0.0
2018-Jun-05 07:58N 44°25' E 008°50'0 0.0
2018-Jun-05 07:28N 44°25' E 008°50'0 0.0
2018-Jun-05 06:58N 44°25' E 008°50'0 0.0
2018-Jun-05 06:28N 44°25' E 008°50'0 0.0
2018-Jun-05 05:58N 44°25' E 008°50'0 0.0
2018-Jun-05 05:28N 44°25' E 008°50'0 0.0
2018-Jun-05 04:58N 44°25' E 008°50'0 0.0
2018-Jun-05 04:28N 44°25' E 008°50'0 0.0
2018-Jun-05 03:50N 44°25' E 008°50'0 0.0
2018-Jun-05 03:22N 44°25' E 008°50'0 0.0
2018-Jun-05 02:58N 44°25' E 008°50'0 0.0
2018-Jun-05 02:28N 44°25' E 008°50'0 0.0
2018-Jun-05 01:58N 44°25' E 008°50'0 0.0
2018-Jun-05 01:26N 44°25' E 008°50'0 0.0
2018-Jun-05 00:52N 44°25' E 008°50'0 0.0
2018-Jun-05 00:26N 44°25' E 008°50'0 0.0
2018-Jun-04 23:56N 44°25' E 008°50'0 0.0
2018-Jun-04 23:28N 44°25' E 008°50'0 0.0
2018-Jun-04 22:56N 44°25' E 008°50'0 0.0
2018-Jun-04 22:26N 44°25' E 008°50'0 0.0
2018-Jun-04 21:58N 44°25' E 008°50'0 0.0
2018-Jun-04 21:26N 44°25' E 008°50'0 0.0
2018-Jun-04 20:59N 44°25' E 008°50'0 0.0
2018-Jun-04 20:29N 44°25' E 008°50'0 0.0
2018-Jun-04 19:59N 44°25' E 008°50'0 0.0
2018-Jun-04 19:29N 44°25' E 008°50'0 0.0
2018-Jun-04 18:59N 44°25' E 008°50'0 0.0
2018-Jun-04 18:29N 44°25' E 008°50'0 0.0
2018-Jun-04 17:59N 44°25' E 008°50'0 0.0
2018-Jun-04 17:29N 44°25' E 008°50'0 0.0
2018-Jun-04 16:59N 44°25' E 008°50'0 0.0
2018-Jun-04 16:29N 44°25' E 008°50'0 0.0
2018-Jun-04 15:59N 44°25' E 008°50'0 0.0
2018-Jun-04 15:29N 44°25' E 008°50'0 0.0
2018-Jun-04 14:59N 44°25' E 008°50'0 0.0
2018-Jun-04 14:23N 44°25' E 008°50'0 0.0
2018-Jun-04 13:59N 44°25' E 008°50'0 0.0
2018-Jun-04 13:20N 44°25' E 008°50'0 0.0
2018-Jun-04 12:59N 44°25' E 008°50'0 0.0
2018-Jun-04 12:24N 44°25' E 008°50'0 0.0
2018-Jun-04 11:56N 44°25' E 008°50'0 0.0
2018-Jun-04 11:26N 44°25' E 008°50'0 0.0
2018-Jun-04 11:00N 44°25' E 008°50'0 0.0
2018-Jun-04 10:26N 44°25' E 008°50'0 0.0
2018-Jun-04 09:56N 44°25' E 008°50'0 0.0
2018-Jun-04 08:56N 44°25' E 008°50'0 0.0
2018-Jun-04 08:26N 44°25' E 008°50'0 0.0
2018-Jun-04 08:00N 44°25' E 008°50'0 0.0
2018-Jun-04 07:31N 44°25' E 008°50'0 0.0
2018-Jun-04 07:00N 44°25' E 008°50'0 0.0
2018-Jun-04 06:30N 44°25' E 008°50'0 0.0
2018-Jun-04 05:44N 44°25' E 008°50'0 0.0
2018-Jun-04 05:31N 44°25' E 008°50'0 0.0
2018-Jun-04 05:00N 44°25' E 008°50'0 0.0
2018-Jun-04 04:30N 44°25' E 008°50'0 0.0
2018-Jun-04 04:00N 44°25' E 008°50'0 0.0
2018-Jun-04 03:30N 44°25' E 008°50'0 0.0
2018-Jun-04 03:00N 44°25' E 008°50'0 0.0
2018-Jun-04 02:26N 44°25' E 008°50'0 0.0
2018-Jun-04 01:50N 44°25' E 008°50'0 0.0
2018-Jun-04 01:30N 44°25' E 008°50'0 0.0
2018-Jun-04 01:00N 44°25' E 008°50'0 0.0
2018-Jun-04 00:24N 44°25' E 008°50'0 0.0
2018-Jun-03 23:54N 44°25' E 008°50'0 0.0
2018-Jun-03 23:20N 44°25' E 008°50'0 0.0
2018-Jun-03 22:57N 44°25' E 008°50'0 0.0
2018-Jun-03 22:24N 44°25' E 008°50'0 0.0
2018-Jun-03 21:58N 44°25' E 008°50'0 0.0
2018-Jun-03 21:27N 44°25' E 008°50'0 0.0
2018-Jun-03 20:57N 44°25' E 008°50'0 0.0
2018-Jun-03 20:27N 44°25' E 008°50'0 0.0
2018-Jun-03 19:54N 44°25' E 008°50'0 0.0
2018-Jun-03 19:30N 44°25' E 008°50'0 0.0
2018-Jun-03 18:58N 44°25' E 008°50'0 0.0
2018-Jun-03 18:27N 44°25' E 008°50'0 0.0
2018-Jun-03 17:57N 44°25' E 008°50'0 0.0
2018-Jun-03 17:30N 44°25' E 008°50'0 0.0
2018-Jun-03 17:00N 44°25' E 008°50'0 0.0
2018-Jun-03 16:30N 44°25' E 008°50'0 0.0
2018-Jun-03 16:00N 44°25' E 008°50'0 0.0
2018-Jun-03 15:31N 44°25' E 008°50'0 0.0
2018-Jun-03 15:00N 44°25' E 008°50'0 0.0
2018-Jun-03 14:30N 44°25' E 008°50'0 0.0
2018-Jun-03 14:00N 44°25' E 008°50'0 0.0
2018-Jun-03 13:30N 44°25' E 008°50'0 0.0
2018-Jun-03 13:00N 44°25' E 008°50'0 0.0
2018-Jun-03 12:27N 44°25' E 008°50'0 0.0
2018-Jun-03 12:00N 44°25' E 008°50'0 0.0
2018-Jun-03 11:27N 44°25' E 008°50'0 0.0
2018-Jun-03 10:57N 44°25' E 008°50'0 0.0
2018-Jun-03 10:24N 44°25' E 008°50'0 0.0
2018-Jun-03 09:58N 44°25' E 008°50'0 0.0
2018-Jun-03 09:27N 44°25' E 008°50'0 0.0
2018-Jun-03 08:54N 44°25' E 008°50'0 0.0
2018-Jun-03 08:27N 44°25' E 008°50'0 0.0
2018-Jun-03 07:58N 44°25' E 008°50'0 0.0
2018-Jun-03 07:27N 44°25' E 008°50'0 0.0
2018-Jun-03 06:54N 44°25' E 008°50'0 0.0
2018-Jun-03 06:27N 44°25' E 008°50'0 0.0
2018-Jun-03 06:00N 44°25' E 008°50'0 0.0
2018-Jun-03 05:27N 44°25' E 008°50'0 0.0
2018-Jun-03 04:57N 44°25' E 008°50'0 0.0
2018-Jun-03 04:27N 44°25' E 008°50'0 0.0
2018-Jun-03 04:01N 44°25' E 008°50'0 0.0
2018-Jun-03 03:30N 44°25' E 008°50'0 0.0
2018-Jun-03 03:00N 44°25' E 008°50'0 0.0
2018-Jun-03 02:30N 44°25' E 008°50'0 0.0
2018-Jun-03 02:00N 44°25' E 008°50'0 0.0
2018-Jun-03 01:31N 44°25' E 008°50'0 0.0
2018-Jun-03 01:00N 44°25' E 008°50'0 0.0
2018-Jun-03 00:30N 44°25' E 008°50'0 0.0
2018-Jun-03 00:00N 44°25' E 008°50'0 0.0
2018-Jun-02 23:30N 44°25' E 008°50'0 0.0
2018-Jun-02 23:00N 44°25' E 008°50'0 0.0
2018-Jun-02 22:30N 44°25' E 008°50'0 0.0
2018-Jun-02 22:00N 44°25' E 008°50'0 0.0
2018-Jun-02 21:30N 44°25' E 008°50'0 0.0
2018-Jun-02 21:00N 44°25' E 008°50'0 0.0
2018-Jun-02 20:27N 44°25' E 008°50'0 0.0
2018-Jun-02 20:00N 44°25' E 008°50'0 0.0
2018-Jun-02 19:30N 44°25' E 008°50'0 0.0
2018-Jun-02 18:55N 44°25' E 008°50'0 0.0
2018-Jun-02 18:25N 44°25' E 008°50'0 0.0
2018-Jun-02 17:57N 44°25' E 008°50'0 0.0
2018-Jun-02 17:27N 44°25' E 008°50'0 0.0
2018-Jun-02 16:57N 44°25' E 008°50'0 0.0
2018-Jun-02 16:25N 44°25' E 008°50'0 0.0
2018-Jun-02 15:57N 44°25' E 008°50'0 0.0
2018-Jun-02 15:28N 44°25' E 008°50'0 0.0
2018-Jun-02 14:55N 44°25' E 008°50'0 0.0
2018-Jun-02 14:27N 44°25' E 008°50'0 0.0
2018-Jun-02 13:57N 44°25' E 008°50'0 0.0
2018-Jun-02 13:27N 44°25' E 008°50'0 0.0
2018-Jun-02 12:57N 44°25' E 008°50'0 0.0
2018-Jun-02 12:27N 44°25' E 008°50'0 0.0
2018-Jun-02 11:57N 44°25' E 008°50'0 0.0
2018-Jun-02 11:21N 44°25' E 008°50'0 0.0
2018-Jun-02 10:57N 44°25' E 008°50'0 0.0
2018-Jun-02 10:19N 44°25' E 008°50'0 0.0
2018-Jun-02 09:49N 44°25' E 008°50'0 0.0
2018-Jun-02 09:28N 44°25' E 008°50'0 0.0
2018-Jun-02 08:58N 44°25' E 008°50'0 0.0
2018-Jun-02 08:25N 44°25' E 008°50'0 0.0
2018-Jun-02 07:58N 44°25' E 008°50'0 0.0
2018-Jun-02 07:28N 44°25' E 008°50'0 0.0
2018-Jun-02 06:58N 44°25' E 008°50'0 0.0
2018-Jun-02 06:28N 44°25' E 008°50'0 0.0
2018-Jun-02 05:59N 44°25' E 008°50'0 0.0
2018-Jun-02 05:29N 44°25' E 008°50'  
Track history (hours):
 
Tides and Currents Weather Stations Pressure Air Temp Water Temp Dewpoint Dewpoint Depression Visibility Wind Speed Wind Dir Waves Ship Positions

Venus R

Last reported at 2018-Jun-12 05:20 UTC. Time now 2018-Jun-19 21:57 UTC.
Position N 36°36' W 026°05'.

Length 228 m; draft 12.7 m.

Type: Ship. MMSI: 212084000.

Date/timePositionNaut miles runAvg speedWind from/ knotsBaromVisibWave heightAir tempDewpointWater temp
2018-Jun-12 05:20N 36°36' W 026°05'412.3
2018-Jun-12 05:00N 36°36' W 025°60'612.6
2018-Jun-12 04:30N 36°38' W 025°52'612.8
2018-Jun-12 04:00N 36°39' W 025°44'612.5
2018-Jun-12 03:30N 36°40' W 025°37'612.4
2018-Jun-12 03:01N 36°41' W 025°29'612.3
2018-Jun-12 02:30N 36°42' W 025°22'612.2
2018-Jun-12 02:00N 36°43' W 025°14'612.2
2018-Jun-12 01:31N 36°42' W 025°06'612.2
2018-Jun-12 01:00N 36°42' W 024°59'612.1
2018-Jun-12 00:30N 36°42' W 024°51'612.0
2018-Jun-12 00:01N 36°41' W 024°44'611.9
2018-Jun-11 23:30N 36°41' W 024°36'612.1
2018-Jun-11 23:00N 36°40' W 024°29'612.0
2018-Jun-11 22:30N 36°40' W 024°22'612.1
2018-Jun-11 22:00N 36°40' W 024°14'611.9
2018-Jun-11 21:30N 36°39' W 024°07'611.9
2018-Jun-11 21:00N 36°39' W 023°59'611.9
2018-Jun-11 20:28N 36°38' W 023°51'511.7
2018-Jun-11 20:00N 36°38' W 023°44'711.7
2018-Jun-11 19:24N 36°37' W 023°36'511.9
2018-Jun-11 19:00N 36°37' W 023°30'612.1
2018-Jun-11 18:30N 36°37' W 023°22'912.0
2018-Jun-11 17:43N 36°36' W 023°11'312.1
2018-Jun-11 17:30N 36°36' W 023°07'812.2
2018-Jun-11 16:51N 36°35' W 022°58'412.3
2018-Jun-11 16:30N 36°35' W 022°52'812.0
2018-Jun-11 15:49N 36°34' W 022°42'811.9
2018-Jun-11 15:09N 36°34' W 022°32'211.8
2018-Jun-11 15:00N 36°34' W 022°30'612.0
2018-Jun-11 14:30N 36°34' W 022°23'611.9
2018-Jun-11 14:00N 36°34' W 022°15'  
2018-Jun-07 20:32N 37°13' W 001°04'711.5
2018-Jun-07 19:58N 37°18' W 000°57'511.5
2018-Jun-07 19:30N 37°21' W 000°52'611.6
2018-Jun-07 19:00N 37°25' W 000°47'611.6
2018-Jun-07 18:28N 37°29' W 000°40'611.8
2018-Jun-07 17:56N 37°33' W 000°35'511.8
2018-Jun-07 17:29N 37°37' W 000°31'612.1
2018-Jun-07 16:57N 37°43' W 000°26'1711.9
2018-Jun-07 15:29N 37°57' W 000°14'611.6
2018-Jun-07 14:57N 38°02' W 000°10'711.6
2018-Jun-07 14:22N 38°08' W 000°05'53512.0
2018-Jun-05 17:37N 44°10' E 008°38'212.2
2018-Jun-05 17:30N 44°11' E 008°39'612.3
2018-Jun-05 17:00N 44°16' E 008°42'612.1
2018-Jun-05 16:30N 44°22' E 008°46'4 8.1
2018-Jun-05 16:00N 44°25' E 008°49'0 0.8
2018-Jun-05 15:28N 44°25' E 008°50'0 0.0
2018-Jun-05 14:56N 44°25' E 008°50'0 0.0
2018-Jun-05 14:22N 44°25' E 008°50'0 0.0
2018-Jun-05 13:56N 44°25' E 008°50'0 0.0
2018-Jun-05 13:28N 44°25' E 008°50'0 0.0
2018-Jun-05 12:52N 44°25' E 008°50'0 0.0
2018-Jun-05 12:14N 44°25' E 008°50'0 0.0
2018-Jun-05 11:58N 44°25' E 008°50'0 0.0
2018-Jun-05 11:28N 44°25' E 008°50'0 0.0
2018-Jun-05 10:58N 44°25' E 008°50'0 0.0
2018-Jun-05 10:28N 44°25' E 008°50'0 0.0
2018-Jun-05 09:58N 44°25' E 008°50'0 0.0
2018-Jun-05 09:26N 44°25' E 008°50'0 0.0
2018-Jun-05 08:56N 44°25' E 008°50'0 0.0
2018-Jun-05 08:28N 44°25' E 008°50'0 0.0
2018-Jun-05 07:58N 44°25' E 008°50'0 0.0
2018-Jun-05 07:28N 44°25' E 008°50'0 0.0
2018-Jun-05 06:58N 44°25' E 008°50'0 0.0
2018-Jun-05 06:28N 44°25' E 008°50'0 0.0
2018-Jun-05 05:58N 44°25' E 008°50'0 0.0
2018-Jun-05 05:28N 44°25' E 008°50'0 0.0
2018-Jun-05 04:58N 44°25' E 008°50'0 0.0
2018-Jun-05 04:28N 44°25' E 008°50'0 0.0
2018-Jun-05 03:50N 44°25' E 008°50'0 0.0
2018-Jun-05 03:22N 44°25' E 008°50'0 0.0
2018-Jun-05 02:58N 44°25' E 008°50'0 0.0
2018-Jun-05 02:28N 44°25' E 008°50'0 0.0
2018-Jun-05 01:58N 44°25' E 008°50'0 0.0
2018-Jun-05 01:26N 44°25' E 008°50'0 0.0
2018-Jun-05 00:52N 44°25' E 008°50'0 0.0
2018-Jun-05 00:26N 44°25' E 008°50'0 0.0
2018-Jun-04 23:56N 44°25' E 008°50'0 0.0
2018-Jun-04 23:28N 44°25' E 008°50'0 0.0
2018-Jun-04 22:56N 44°25' E 008°50'0 0.0
2018-Jun-04 22:26N 44°25' E 008°50'0 0.0
2018-Jun-04 21:58N 44°25' E 008°50'0 0.0
2018-Jun-04 21:26N 44°25' E 008°50'0 0.0
2018-Jun-04 20:59N 44°25' E 008°50'0 0.0
2018-Jun-04 20:29N 44°25' E 008°50'0 0.0
2018-Jun-04 19:59N 44°25' E 008°50'0 0.0
2018-Jun-04 19:29N 44°25' E 008°50'0 0.0
2018-Jun-04 18:59N 44°25' E 008°50'0 0.0
2018-Jun-04 18:29N 44°25' E 008°50'0 0.0
2018-Jun-04 17:59N 44°25' E 008°50'0 0.0
2018-Jun-04 17:29N 44°25' E 008°50'0 0.0
2018-Jun-04 16:59N 44°25' E 008°50'0 0.0
2018-Jun-04 16:29N 44°25' E 008°50'0 0.0
2018-Jun-04 15:59N 44°25' E 008°50'0 0.0
2018-Jun-04 15:29N 44°25' E 008°50'0 0.0
2018-Jun-04 14:59N 44°25' E 008°50'0 0.0
2018-Jun-04 14:23N 44°25' E 008°50'0 0.0
2018-Jun-04 13:59N 44°25' E 008°50'0 0.0
2018-Jun-04 13:20N 44°25' E 008°50'0 0.0
2018-Jun-04 12:59N 44°25' E 008°50'0 0.0
2018-Jun-04 12:24N 44°25' E 008°50'0 0.0
2018-Jun-04 11:56N 44°25' E 008°50'0 0.0
2018-Jun-04 11:26N 44°25' E 008°50'0 0.0
2018-Jun-04 11:00N 44°25' E 008°50'0 0.0
2018-Jun-04 10:26N 44°25' E 008°50'0 0.0
2018-Jun-04 09:56N 44°25' E 008°50'0 0.0
2018-Jun-04 08:56N 44°25' E 008°50'0 0.0
2018-Jun-04 08:26N 44°25' E 008°50'0 0.0
2018-Jun-04 08:00N 44°25' E 008°50'0 0.0
2018-Jun-04 07:31N 44°25' E 008°50'0 0.0
2018-Jun-04 07:00N 44°25' E 008°50'0 0.0
2018-Jun-04 06:30N 44°25' E 008°50'0 0.0
2018-Jun-04 05:44N 44°25' E 008°50'0 0.0
2018-Jun-04 05:31N 44°25' E 008°50'0 0.0
2018-Jun-04 05:00N 44°25' E 008°50'0 0.0
2018-Jun-04 04:30N 44°25' E 008°50'0 0.0
2018-Jun-04 04:00N 44°25' E 008°50'0 0.0
2018-Jun-04 03:30N 44°25' E 008°50'0 0.0
2018-Jun-04 03:00N 44°25' E 008°50'0 0.0
2018-Jun-04 02:26N 44°25' E 008°50'0 0.0
2018-Jun-04 01:50N 44°25' E 008°50'0 0.0
2018-Jun-04 01:30N 44°25' E 008°50'0 0.0
2018-Jun-04 01:00N 44°25' E 008°50'0 0.0
2018-Jun-04 00:24N 44°25' E 008°50'0 0.0
2018-Jun-03 23:54N 44°25' E 008°50'0 0.0
2018-Jun-03 23:20N 44°25' E 008°50'0 0.0
2018-Jun-03 22:57N 44°25' E 008°50'0 0.0
2018-Jun-03 22:24N 44°25' E 008°50'0 0.0
2018-Jun-03 21:58N 44°25' E 008°50'0 0.0
2018-Jun-03 21:27N 44°25' E 008°50'0 0.0
2018-Jun-03 20:57N 44°25' E 008°50'0 0.0
2018-Jun-03 20:27N 44°25' E 008°50'0 0.0
2018-Jun-03 19:54N 44°25' E 008°50'0 0.0
2018-Jun-03 19:30N 44°25' E 008°50'0 0.0
2018-Jun-03 18:58N 44°25' E 008°50'0 0.0
2018-Jun-03 18:27N 44°25' E 008°50'0 0.0
2018-Jun-03 17:57N 44°25' E 008°50'0 0.0
2018-Jun-03 17:30N 44°25' E 008°50'0 0.0
2018-Jun-03 17:00N 44°25' E 008°50'0 0.0
2018-Jun-03 16:30N 44°25' E 008°50'0 0.0
2018-Jun-03 16:00N 44°25' E 008°50'0 0.0
2018-Jun-03 15:31N 44°25' E 008°50'0 0.0
2018-Jun-03 15:00N 44°25' E 008°50'0 0.0
2018-Jun-03 14:30N 44°25' E 008°50'0 0.0
2018-Jun-03 14:00N 44°25' E 008°50'0 0.0
2018-Jun-03 13:30N 44°25' E 008°50'0 0.0
2018-Jun-03 13:00N 44°25' E 008°50'0 0.0
2018-Jun-03 12:27N 44°25' E 008°50'0 0.0
2018-Jun-03 12:00N 44°25' E 008°50'0 0.0
2018-Jun-03 11:27N 44°25' E 008°50'0 0.0
2018-Jun-03 10:57N 44°25' E 008°50'0 0.0
2018-Jun-03 10:24N 44°25' E 008°50'0 0.0
2018-Jun-03 09:58N 44°25' E 008°50'0 0.0
2018-Jun-03 09:27N 44°25' E 008°50'0 0.0
2018-Jun-03 08:54N 44°25' E 008°50'0 0.0
2018-Jun-03 08:27N 44°25' E 008°50'0 0.0
2018-Jun-03 07:58N 44°25' E 008°50'0 0.0
2018-Jun-03 07:27N 44°25' E 008°50'0 0.0
2018-Jun-03 06:54N 44°25' E 008°50'0 0.0
2018-Jun-03 06:27N 44°25' E 008°50'0 0.0
2018-Jun-03 06:00N 44°25' E 008°50'0 0.0
2018-Jun-03 05:27N 44°25' E 008°50'0 0.0
2018-Jun-03 04:57N 44°25' E 008°50'0 0.0
2018-Jun-03 04:27N 44°25' E 008°50'0 0.0
2018-Jun-03 04:01N 44°25' E 008°50'0 0.0
2018-Jun-03 03:30N 44°25' E 008°50'0 0.0
2018-Jun-03 03:00N 44°25' E 008°50'0 0.0
2018-Jun-03 02:30N 44°25' E 008°50'0 0.0
2018-Jun-03 02:00N 44°25' E 008°50'0 0.0
2018-Jun-03 01:31N 44°25' E 008°50'0 0.0
2018-Jun-03 01:00N 44°25' E 008°50'0 0.0
2018-Jun-03 00:30N 44°25' E 008°50'0 0.0
2018-Jun-03 00:00N 44°25' E 008°50'0 0.0
2018-Jun-02 23:30N 44°25' E 008°50'0 0.0
2018-Jun-02 23:00N 44°25' E 008°50'0 0.0
2018-Jun-02 22:30N 44°25' E 008°50'0 0.0
2018-Jun-02 22:00N 44°25' E 008°50'0 0.0
2018-Jun-02 21:30N 44°25' E 008°50'0 0.0
2018-Jun-02 21:00N 44°25' E 008°50'0 0.0
2018-Jun-02 20:27N 44°25' E 008°50'0 0.0
2018-Jun-02 20:00N 44°25' E 008°50'0 0.0
2018-Jun-02 19:30N 44°25' E 008°50'0 0.0
2018-Jun-02 18:55N 44°25' E 008°50'0 0.0
2018-Jun-02 18:25N 44°25' E 008°50'0 0.0
2018-Jun-02 17:57N 44°25' E 008°50'0 0.0
2018-Jun-02 17:27N 44°25' E 008°50'0 0.0
2018-Jun-02 16:57N 44°25' E 008°50'0 0.0
2018-Jun-02 16:25N 44°25' E 008°50'0 0.0
2018-Jun-02 15:57N 44°25' E 008°50'0 0.0
2018-Jun-02 15:28N 44°25' E 008°50'0 0.0
2018-Jun-02 14:55N 44°25' E 008°50'0 0.0
2018-Jun-02 14:27N 44°25' E 008°50'0 0.0
2018-Jun-02 13:57N 44°25' E 008°50'0 0.0
2018-Jun-02 13:27N 44°25' E 008°50'0 0.0
2018-Jun-02 12:57N 44°25' E 008°50'0 0.0
2018-Jun-02 12:27N 44°25' E 008°50'0 0.0
2018-Jun-02 11:57N 44°25' E 008°50'0 0.0
2018-Jun-02 11:21N 44°25' E 008°50'0 0.0
2018-Jun-02 10:57N 44°25' E 008°50'0 0.0
2018-Jun-02 10:19N 44°25' E 008°50'0 0.0
2018-Jun-02 09:49N 44°25' E 008°50'0 0.0
2018-Jun-02 09:28N 44°25' E 008°50'0 0.0
2018-Jun-02 08:58N 44°25' E 008°50'0 0.0
2018-Jun-02 08:25N 44°25' E 008°50'0 0.0
2018-Jun-02 07:58N 44°25' E 008°50'0 0.0
2018-Jun-02 07:28N 44°25' E 008°50'0 0.0
2018-Jun-02 06:58N 44°25' E 008°50'0 0.0
2018-Jun-02 06:28N 44°25' E 008°50'0 0.0
2018-Jun-02 05:59N 44°25' E 008°50'0 0.0
2018-Jun-02 05:29N 44°25' E 008°50'  

Dump ship's entire track history